createdAt,value
2019-04-02T00:43:55.959Z,920.66
2019-04-02T00:44:55.690Z,920.68
2019-04-02T00:45:55.625Z,920.67
2019-04-02T00:46:55.616Z,920.69
2019-04-02T00:47:55.604Z,920.67
2019-04-02T00:48:55.591Z,920.67
2019-04-02T00:49:55.577Z,920.75
2019-04-02T00:50:55.716Z,920.74
2019-04-02T00:51:55.554Z,920.73
2019-04-02T00:52:55.548Z,920.73
2019-04-02T00:53:55.538Z,920.78
2019-04-02T00:54:55.526Z,920.77
2019-04-02T00:55:55.515Z,920.77
2019-04-02T00:56:56.305Z,920.75
2019-04-02T00:57:55.559Z,920.71
2019-04-02T00:58:55.477Z,920.71
2019-04-02T00:59:55.467Z,920.66
2019-04-02T01:00:55.458Z,920.74
2019-04-02T01:01:55.451Z,920.70
2019-04-02T01:02:55.490Z,920.71
2019-04-02T01:03:55.426Z,920.71
2019-04-02T01:04:55.417Z,920.73
2019-04-02T01:05:55.401Z,920.70
2019-04-02T01:06:55.391Z,920.65
2019-04-02T01:07:55.381Z,920.71
2019-04-02T01:08:55.525Z,920.65
2019-04-02T01:09:56.053Z,920.69
2019-04-02T01:10:55.346Z,920.69
2019-04-02T01:11:55.335Z,920.71
2019-04-02T01:12:55.323Z,920.62
2019-04-02T01:13:55.315Z,920.72
2019-04-02T01:14:55.351Z,920.70
2019-04-02T01:15:55.294Z,920.68
2019-04-02T01:16:55.287Z,920.74
2019-04-02T01:17:55.274Z,920.74
2019-04-02T01:18:55.264Z,920.78
2019-04-02T01:19:55.251Z,920.80
2019-04-02T01:20:55.340Z,920.79
2019-04-02T01:21:49.879Z,920.80
2019-04-02T01:22:49.865Z,920.79
2019-04-02T01:23:49.855Z,920.82
2019-04-02T01:24:49.848Z,920.86
2019-04-02T01:25:49.832Z,920.84
2019-04-02T01:26:50.072Z,920.79
2019-04-02T01:27:49.808Z,920.83
2019-04-02T01:28:50.090Z,920.87
2019-04-02T01:29:49.787Z,920.83
2019-04-02T01:30:49.778Z,920.83
2019-04-02T01:31:49.765Z,920.86
2019-04-02T01:32:49.853Z,920.81
2019-04-02T01:33:49.742Z,920.90
2019-04-02T01:34:49.731Z,920.86
2019-04-02T01:35:49.721Z,920.85
2019-04-02T01:36:49.713Z,920.85
2019-04-02T01:37:49.702Z,920.83
2019-04-02T01:38:49.743Z,920.90
2019-04-02T01:39:49.678Z,920.88
2019-04-02T01:40:49.676Z,920.87
2019-04-02T01:41:49.661Z,920.86
2019-04-02T01:42:49.644Z,920.86
2019-04-02T01:43:49.637Z,920.84
2019-04-02T01:44:50.313Z,920.81
2019-04-02T01:45:49.622Z,920.82
2019-04-02T01:46:49.605Z,920.80
2019-04-02T01:47:49.593Z,920.83
2019-04-02T01:48:49.576Z,920.76
2019-04-02T01:49:49.569Z,920.80
2019-04-02T01:50:49.659Z,920.78
2019-04-02T01:51:49.549Z,920.81
2019-04-02T01:52:49.541Z,920.82
2019-04-02T01:53:49.526Z,920.74
2019-04-02T01:54:49.512Z,920.77
2019-04-02T01:55:49.502Z,920.80
2019-04-02T01:56:49.541Z,920.83
2019-04-02T01:57:50.198Z,920.85
2019-04-02T01:58:49.472Z,920.83
2019-04-02T01:59:49.459Z,920.80
2019-04-02T02:00:50.789Z,920.76
2019-04-02T02:01:50.202Z,920.83
2019-04-02T02:02:49.676Z,920.77
2019-04-02T02:03:49.415Z,920.78
2019-04-02T02:04:49.401Z,920.77
2019-04-02T02:05:49.396Z,920.76
2019-04-02T02:06:49.385Z,920.73
2019-04-02T02:08:02.121Z,920.79
2019-04-02T02:08:49.423Z,920.80
2019-04-02T02:09:49.357Z,920.76
2019-04-02T02:10:49.337Z,920.75
2019-04-02T02:11:49.327Z,920.71
2019-04-02T02:12:49.320Z,920.75
2019-04-02T02:13:49.315Z,920.74
2019-04-02T02:14:49.349Z,920.73
2019-04-02T02:15:49.285Z,920.73
2019-04-02T02:16:49.275Z,920.73
2019-04-02T02:17:49.272Z,920.75
2019-04-02T02:18:49.380Z,920.75
2019-04-02T02:19:49.299Z,920.75
2019-04-02T02:20:49.236Z,920.76
2019-04-02T02:21:49.224Z,920.74
2019-04-02T02:22:49.216Z,920.76
2019-04-02T02:23:49.204Z,920.70
2019-04-02T02:24:49.396Z,920.72
2019-04-02T02:25:49.182Z,920.70
2019-04-02T02:26:49.169Z,920.74
2019-04-02T02:27:49.163Z,920.75
2019-04-02T02:28:49.149Z,920.77
2019-04-02T02:29:49.143Z,920.77
2019-04-02T02:30:49.190Z,920.73
2019-04-02T02:31:49.123Z,920.75
2019-04-02T02:32:49.112Z,920.73
2019-04-02T02:33:49.104Z,920.75
2019-04-02T02:34:49.088Z,920.75
2019-04-02T02:35:49.081Z,920.82
2019-04-02T02:36:49.168Z,920.83
2019-04-02T02:37:49.057Z,920.86
2019-04-02T02:38:49.051Z,920.86
2019-04-02T02:39:49.035Z,920.82
2019-04-02T02:40:49.029Z,920.86
2019-04-02T02:41:49.015Z,920.87
2019-04-02T02:42:50.051Z,920.89
2019-04-02T02:43:48.992Z,920.87
2019-04-02T02:44:48.979Z,920.84
2019-04-02T02:45:48.974Z,920.85
2019-04-02T02:46:48.958Z,920.84
2019-04-02T02:47:48.949Z,920.86
2019-04-02T02:48:49.037Z,920.88
2019-04-02T02:49:49.443Z,920.88
2019-04-02T02:50:49.552Z,920.85
2019-04-02T02:51:49.449Z,920.89
2019-04-02T02:52:49.856Z,920.88
2019-04-02T02:53:50.469Z,920.90
2019-04-02T02:54:51.358Z,920.92
2019-04-02T02:55:48.858Z,920.90
2019-04-02T02:56:48.853Z,920.97
2019-04-02T02:57:48.841Z,920.97
2019-04-02T02:58:48.832Z,921.02
2019-04-02T02:59:48.822Z,921.06
2019-04-02T03:00:48.966Z,921.05
2019-04-02T03:01:48.796Z,921.10
2019-04-02T03:02:48.785Z,921.15
2019-04-02T03:03:48.779Z,921.10
2019-04-02T03:04:48.763Z,921.07
2019-04-02T03:05:48.759Z,921.11
2019-04-02T03:06:48.799Z,921.07
2019-04-02T03:07:48.735Z,921.08
2019-04-02T03:08:48.720Z,921.13
2019-04-02T03:09:48.716Z,921.11
2019-04-02T03:10:48.702Z,921.15
2019-04-02T03:11:48.690Z,921.16
2019-04-02T03:12:48.733Z,921.10
2019-04-02T03:13:48.668Z,921.13
2019-04-02T03:14:48.663Z,921.17
2019-04-02T03:15:48.688Z,921.17
2019-04-02T03:16:48.635Z,921.21
2019-04-02T03:17:48.625Z,921.20
2019-04-02T03:18:48.820Z,921.18
2019-04-02T03:19:48.609Z,921.21
2019-04-02T03:20:48.596Z,921.15
2019-04-02T03:21:48.587Z,921.16
2019-04-02T03:22:48.571Z,921.19
2019-04-02T03:23:49.048Z,921.14
2019-04-02T03:24:51.063Z,921.19
2019-04-02T03:25:48.542Z,921.15
2019-04-02T03:26:51.446Z,921.18
2019-04-02T03:27:48.523Z,921.22
2019-04-02T03:28:48.512Z,921.27
2019-04-02T03:29:48.500Z,921.27
2019-04-02T03:30:48.592Z,921.24
2019-04-02T03:31:48.476Z,921.28
2019-04-02T03:32:48.470Z,921.22
2019-04-02T03:33:49.792Z,921.19
2019-04-02T03:34:48.451Z,921.20
2019-04-02T03:35:50.053Z,921.23
2019-04-02T03:36:48.628Z,921.20
2019-04-02T03:37:48.411Z,921.22
2019-04-02T03:38:48.408Z,921.22
2019-04-02T03:39:48.399Z,921.12
2019-04-02T03:40:48.385Z,921.17
2019-04-02T03:41:48.376Z,921.17
2019-04-02T03:42:48.413Z,921.21
2019-04-02T03:43:48.353Z,921.24
2019-04-02T03:44:48.340Z,921.22
2019-04-02T03:45:48.332Z,921.24
2019-04-02T03:46:48.324Z,921.20
2019-04-02T03:47:48.314Z,921.23
2019-04-02T03:48:48.403Z,921.23
2019-04-02T03:49:48.288Z,921.22
2019-04-02T03:50:52.122Z,921.19
2019-04-02T03:51:48.273Z,921.21
2019-04-02T03:52:48.414Z,921.18
2019-04-02T03:53:49.624Z,921.21
2019-04-02T03:54:48.439Z,921.25
2019-04-02T03:55:48.237Z,921.26
2019-04-02T03:56:48.219Z,921.23
2019-04-02T03:57:48.209Z,921.21
2019-04-02T03:58:48.202Z,921.19
2019-04-02T03:59:48.189Z,921.23
2019-04-02T04:00:48.227Z,921.25
2019-04-02T04:01:48.171Z,921.24
2019-04-02T04:02:48.154Z,921.22
2019-04-02T04:03:48.151Z,921.24
2019-04-02T04:04:48.139Z,921.24
2019-04-02T04:05:48.138Z,921.29
2019-04-02T04:06:48.216Z,921.29
2019-04-02T04:07:48.116Z,921.24
2019-04-02T04:08:48.108Z,921.19
2019-04-02T04:09:48.328Z,921.25
2019-04-02T04:10:48.107Z,921.18
2019-04-02T04:11:48.077Z,921.24
2019-04-02T04:12:48.260Z,921.20
2019-04-02T04:13:48.048Z,921.21
2019-04-02T04:14:48.054Z,921.22
2019-04-02T04:15:48.040Z,921.19
2019-04-02T04:16:48.438Z,921.23
2019-04-02T04:17:48.954Z,921.16
2019-04-02T04:18:49.489Z,921.16
2019-04-02T04:19:49.309Z,921.15
2019-04-02T04:20:47.976Z,921.18
2019-04-02T04:21:47.966Z,921.18
2019-04-02T04:22:47.962Z,921.11
2019-04-02T04:23:48.048Z,921.13
2019-04-02T04:24:47.963Z,921.13
2019-04-02T04:25:47.934Z,921.15
2019-04-02T04:26:47.921Z,921.11
2019-04-02T04:27:47.914Z,921.10
2019-04-02T04:28:47.937Z,921.07
2019-04-02T04:29:47.990Z,921.09
2019-04-02T04:30:47.891Z,921.07
2019-04-02T04:31:47.922Z,921.08
2019-04-02T04:32:47.885Z,921.06
2019-04-02T04:33:47.846Z,921.07
2019-04-02T04:34:48.085Z,921.05
2019-04-02T04:35:47.824Z,921.07
2019-04-02T04:36:47.811Z,921.12
2019-04-02T04:37:47.812Z,921.11
2019-04-02T04:38:47.795Z,921.07
2019-04-02T04:39:49.265Z,921.10
2019-04-02T04:40:49.634Z,921.10
2019-04-02T04:41:49.654Z,921.09
2019-04-02T04:42:50.097Z,921.08
2019-04-02T04:43:47.744Z,921.05
2019-04-02T04:44:47.733Z,921.04
2019-04-02T04:45:47.720Z,921.02
2019-04-02T04:46:47.810Z,920.98
2019-04-02T04:47:47.699Z,921.02
2019-04-02T04:48:47.693Z,921.00
2019-04-02T04:49:47.682Z,921.04
2019-04-02T04:50:47.671Z,921.03
2019-04-02T04:51:47.659Z,921.04
2019-04-02T04:52:47.854Z,921.04
2019-04-02T04:53:47.643Z,921.05
2019-04-02T04:54:47.634Z,921.04
2019-04-02T04:55:47.624Z,920.98
2019-04-02T04:56:47.611Z,921.01
2019-04-02T04:57:47.604Z,920.95
2019-04-02T04:58:47.693Z,921.00
2019-04-02T04:59:47.582Z,921.04
2019-04-02T05:00:49.643Z,921.05
2019-04-02T05:01:48.493Z,921.03
2019-04-02T05:02:47.549Z,921.04
2019-04-02T05:03:47.538Z,921.06
2019-04-02T05:04:47.628Z,921.06
2019-04-02T05:05:47.518Z,921.06
2019-04-02T05:06:47.511Z,921.08
2019-04-02T05:07:48.825Z,921.11
2019-04-02T05:08:47.906Z,921.08
2019-04-02T05:09:48.631Z,921.11
2019-04-02T05:10:48.030Z,921.12
2019-04-02T05:11:47.456Z,921.14
2019-04-02T05:12:47.451Z,921.14
2019-04-02T05:13:47.437Z,921.16
2019-04-02T05:14:47.436Z,921.17
2019-04-02T05:15:47.417Z,921.16
2019-04-02T05:16:47.464Z,921.16
2019-04-02T05:17:47.838Z,921.14
2019-04-02T05:18:47.387Z,921.10
2019-04-02T05:19:47.378Z,921.12
2019-04-02T05:20:47.374Z,921.13
2019-04-02T05:21:47.358Z,921.17
2019-04-02T05:22:47.399Z,921.13
2019-04-02T05:23:47.337Z,921.12
2019-04-02T05:24:47.327Z,921.13
2019-04-02T05:25:47.321Z,921.11
2019-04-02T05:26:47.308Z,921.09
2019-04-02T05:27:47.295Z,921.06
2019-04-02T05:28:47.439Z,921.05
2019-04-02T05:29:47.271Z,921.04
2019-04-02T05:30:47.260Z,921.01
2019-04-02T05:31:47.254Z,921.01
2019-04-02T05:32:47.245Z,921.03
2019-04-02T05:33:47.231Z,921.07
2019-04-02T05:34:47.270Z,921.01
2019-04-02T05:35:47.208Z,920.98
2019-04-02T05:36:47.203Z,920.97
2019-04-02T05:37:47.190Z,920.97
2019-04-02T05:38:48.319Z,920.99
2019-04-02T05:39:47.164Z,920.92
2019-04-02T05:40:47.253Z,920.93
2019-04-02T05:41:47.148Z,920.88
2019-04-02T05:42:47.416Z,920.89
2019-04-02T05:43:47.126Z,920.83
2019-04-02T05:44:47.115Z,920.84
2019-04-02T05:45:47.105Z,920.82
2019-04-02T05:46:47.343Z,920.81
2019-04-02T05:47:47.085Z,920.81
2019-04-02T05:48:47.074Z,920.79
2019-04-02T05:49:47.063Z,920.84
2019-04-02T05:50:47.050Z,920.75
2019-04-02T05:51:47.039Z,920.81
2019-04-02T05:52:47.079Z,920.84
2019-04-02T05:53:47.026Z,920.82
2019-04-02T05:54:47.009Z,920.82
2019-04-02T05:55:47.001Z,920.77
2019-04-02T05:56:46.983Z,920.77
2019-04-02T05:57:47.733Z,920.74
2019-04-02T05:58:48.274Z,920.71
2019-04-02T06:00:46.940Z,920.73
2019-04-02T06:01:46.931Z,920.72
2019-04-02T06:02:46.921Z,920.70
2019-04-02T06:03:46.958Z,920.73
2019-04-02T06:04:46.907Z,920.73
2019-04-02T06:06:47.083Z,920.79
2019-04-02T06:07:46.869Z,920.77
2019-04-02T06:09:46.954Z,920.78
2019-04-02T06:10:46.837Z,920.77
2019-04-02T06:11:47.376Z,920.81
2019-04-02T06:13:46.802Z,920.78
2019-04-02T06:14:46.794Z,920.78
2019-04-02T06:15:46.832Z,920.81
2019-04-02T06:16:46.775Z,920.79
2019-04-02T06:17:46.757Z,920.84
2019-04-02T06:18:46.748Z,920.80
2019-04-02T06:19:47.692Z,920.77
2019-04-02T06:20:47.462Z,920.75
2019-04-02T06:22:46.754Z,920.66
2019-04-02T06:23:46.700Z,920.64
2019-04-02T06:24:46.685Z,920.61
2019-04-02T06:25:49.285Z,920.55
2019-04-02T06:26:46.663Z,920.54
2019-04-02T06:27:48.131Z,920.60
2019-04-02T06:28:46.746Z,920.56
2019-04-02T06:29:46.638Z,920.56
2019-04-02T06:30:46.636Z,920.56
2019-04-02T06:31:46.619Z,920.50
2019-04-02T06:33:13.527Z,920.47
2019-04-02T06:34:11.611Z,920.51
2019-04-02T06:35:13.686Z,920.48
2019-04-02T06:36:11.433Z,920.46
2019-04-02T06:37:13.943Z,920.45
2019-04-02T06:39:11.395Z,920.43
2019-04-02T06:40:36.284Z,920.38
2019-04-02T06:42:01.258Z,920.39
2019-04-02T06:43:01.086Z,920.35
2019-04-02T06:44:01.078Z,920.32
2019-04-02T06:45:33.450Z,920.29
2019-04-02T06:46:25.853Z,920.35
2019-04-02T06:47:27.815Z,920.32
2019-04-02T06:48:25.912Z,920.33
2019-04-02T06:49:27.377Z,920.33
2019-04-02T06:52:50.984Z,920.34
2019-04-02T06:53:58.425Z,920.36
2019-04-02T06:54:50.768Z,920.29
2019-04-02T06:55:50.806Z,920.34
2019-04-02T06:56:50.737Z,920.34
2019-04-02T06:57:51.028Z,920.35
2019-04-02T06:58:50.729Z,920.29
2019-04-02T06:59:50.715Z,920.27
2019-04-02T07:00:50.702Z,920.30
2019-04-02T07:02:23.955Z,920.33
2019-04-02T07:10:50.974Z,920.29
2019-04-02T07:11:51.191Z,920.30
2019-04-02T07:12:52.938Z,920.32
2019-04-02T07:13:50.630Z,920.38
2019-04-02T07:17:50.554Z,920.23
2019-04-02T07:19:15.319Z,920.15
2019-04-02T07:20:40.188Z,920.15
2019-04-02T07:22:06.360Z,920.13
2019-04-02T07:23:04.908Z,920.14
2019-04-02T07:24:08.005Z,920.17
2019-04-02T07:25:20.368Z,920.15
2019-04-02T07:26:29.689Z,920.18
2019-04-02T07:28:29.768Z,920.14
2019-04-02T07:29:54.526Z,920.17
2019-04-02T07:31:19.329Z,920.13
2019-04-02T07:32:57.068Z,920.08
2019-04-02T07:33:44.056Z,920.05
2019-04-02T07:34:44.047Z,920.08
2019-04-02T07:35:44.081Z,920.01
2019-04-02T07:37:08.884Z,920.07
2019-04-02T07:41:33.662Z,920.01
2019-04-02T07:42:33.851Z,920.04
2019-04-02T07:43:59.361Z,919.98
2019-04-02T07:44:35.213Z,919.97
2019-04-02T07:45:33.620Z,919.98
2019-04-02T07:46:33.635Z,919.99
2019-04-02T07:47:33.647Z,919.93
2019-04-02T07:48:58.448Z,919.92
2019-04-02T07:49:58.483Z,919.89
2019-04-02T07:50:58.471Z,919.87
2019-04-02T07:51:58.569Z,919.87
2019-04-02T07:52:58.388Z,919.86
2019-04-02T07:54:23.240Z,919.81
2019-04-02T07:57:47.942Z,919.74
2019-04-02T07:59:03.557Z,919.70
2019-04-02T07:59:47.919Z,919.72
2019-04-02T08:01:12.725Z,919.67
2019-04-02T08:02:12.810Z,919.71
2019-04-02T08:03:12.702Z,919.64
2019-04-02T08:04:12.735Z,919.71
2019-04-02T08:05:12.679Z,919.69
2019-04-02T08:06:12.670Z,919.68
2019-04-02T08:08:16.002Z,919.65
2019-04-02T08:09:12.648Z,919.61
2019-04-02T08:10:12.828Z,919.70
2019-04-02T08:11:12.966Z,919.77
2019-04-02T08:12:12.602Z,919.61
2019-04-02T08:13:12.596Z,919.60
2019-04-02T08:14:12.734Z,919.62
2019-04-02T08:15:12.578Z,919.59
2019-04-02T08:16:12.564Z,919.62
2019-04-02T08:17:13.011Z,919.56
2019-04-02T08:18:13.095Z,919.60
2019-04-02T08:20:12.572Z,919.56
2019-04-02T08:21:12.607Z,919.51
2019-04-02T08:22:15.753Z,919.43
2019-04-02T08:23:12.488Z,919.46
2019-04-02T08:24:12.526Z,919.41
2019-04-02T08:25:14.723Z,919.43
2019-04-02T08:26:12.459Z,919.39
2019-04-02T08:27:12.451Z,919.39
2019-04-02T08:28:13.054Z,919.43
2019-04-02T08:29:12.458Z,919.40
2019-04-02T08:31:12.407Z,919.37
2019-04-02T08:32:12.402Z,919.39
2019-04-02T08:33:14.588Z,919.38
2019-04-02T08:34:12.418Z,919.40
2019-04-02T08:35:37.576Z,919.39
2019-04-02T08:36:37.731Z,919.35
2019-04-02T08:37:54.923Z,919.32
2019-04-02T08:38:39.438Z,919.35
2019-04-02T08:39:37.542Z,919.40
2019-04-02T08:43:40.675Z,919.35
2019-04-02T08:44:38.698Z,919.35
2019-04-02T08:45:37.567Z,919.33
2019-04-02T08:46:37.409Z,919.34
2019-04-02T08:47:37.446Z,919.38
2019-04-02T08:49:02.431Z,919.44
2019-04-02T08:50:02.393Z,919.41
2019-04-02T08:53:02.235Z,919.41
2019-04-02T08:54:28.198Z,919.32
2019-04-02T08:55:26.974Z,919.34
2019-04-02T08:56:56.793Z,919.27
2019-04-02T08:57:55.025Z,919.28
2019-04-02T08:58:52.292Z,919.17
2019-04-02T08:59:55.798Z,919.18
2019-04-02T09:00:59.951Z,919.22
2019-04-02T09:01:52.873Z,919.19
2019-04-02T09:02:51.933Z,919.21
2019-04-02T09:03:51.698Z,919.18
2019-04-02T09:04:51.716Z,919.12
2019-04-02T09:06:16.462Z,919.21
2019-04-02T09:07:17.666Z,919.20
2019-04-02T09:08:16.893Z,919.18
2019-04-02T09:09:41.452Z,919.17
2019-04-02T09:10:41.243Z,919.11
2019-04-02T09:11:41.229Z,919.12
2019-04-02T09:12:41.233Z,919.07
2019-04-02T09:13:42.525Z,919.10
2019-04-02T09:14:41.238Z,919.10
2019-04-02T09:15:41.242Z,919.09
2019-04-02T09:17:13.449Z,919.12
2019-04-02T09:18:05.997Z,919.07
2019-04-02T09:20:06.063Z,919.02
2019-04-02T09:21:05.949Z,919.04
2019-04-02T09:22:06.138Z,919.02
2019-04-02T09:23:05.976Z,919.01
2019-04-02T09:24:05.957Z,919.01
2019-04-02T09:25:30.885Z,918.95
2019-04-02T09:26:59.747Z,918.97
2019-04-02T09:27:55.605Z,918.88
2019-04-02T09:28:55.596Z,918.90
2019-04-02T09:30:20.651Z,918.94
2019-04-02T09:31:20.581Z,918.84
2019-04-02T09:32:35.267Z,918.91
2019-04-02T09:33:22.565Z,918.89
2019-04-02T09:34:22.081Z,918.85
2019-04-02T09:35:20.340Z,918.87
2019-04-02T09:36:20.632Z,918.82
2019-04-02T09:37:20.320Z,918.86
2019-04-02T09:38:20.308Z,918.83
2019-04-02T09:39:20.297Z,918.79
2019-04-02T09:40:20.283Z,918.84
2019-04-02T09:41:20.272Z,918.86
2019-04-02T09:44:20.245Z,918.84
2019-04-02T09:45:20.435Z,918.88
2019-04-02T09:46:20.235Z,918.92
2019-04-02T09:47:27.515Z,918.89
2019-04-02T09:48:45.234Z,918.87
2019-04-02T09:49:45.406Z,918.88
2019-04-02T09:50:46.127Z,918.88
2019-04-02T09:51:45.226Z,918.88
2019-04-02T09:52:45.227Z,918.86
2019-04-02T09:54:10.072Z,918.84
2019-04-02T09:55:10.068Z,918.84
2019-04-02T09:56:10.255Z,918.88
2019-04-02T09:57:10.050Z,918.84
2019-04-02T09:58:10.035Z,918.84
2019-04-02T09:59:50.630Z,918.88
2019-04-02T10:00:34.953Z,918.83
2019-04-02T10:01:34.918Z,918.84
2019-04-02T10:02:34.904Z,918.87
2019-04-02T10:03:35.091Z,918.89
2019-04-02T10:06:50.499Z,918.89
2019-04-02T10:07:59.688Z,918.91
2019-04-02T10:09:24.459Z,918.93
2019-04-02T10:10:25.126Z,918.92
2019-04-02T10:11:24.490Z,918.98
2019-04-02T10:12:24.435Z,918.94
2019-04-02T10:13:24.421Z,918.94
2019-04-02T10:14:24.453Z,918.94
2019-04-02T10:15:24.400Z,918.94
2019-04-02T10:17:50.259Z,918.93
2019-04-02T10:18:26.240Z,918.95
2019-04-02T10:19:31.814Z,918.99
2019-04-02T10:20:24.344Z,918.97
2019-04-02T10:21:24.332Z,919.01
2019-04-02T10:23:24.417Z,919.03
2019-04-02T10:24:24.380Z,919.00
2019-04-02T10:25:24.291Z,919.01
2019-04-02T10:26:24.355Z,919.00
2019-04-02T10:27:26.484Z,918.99
2019-04-02T10:28:24.265Z,918.97
2019-04-02T10:29:49.194Z,918.98
2019-04-02T10:30:49.359Z,919.02
2019-04-02T10:32:01.917Z,918.99
2019-04-02T10:32:49.128Z,919.00
2019-04-02T10:33:49.137Z,918.96
2019-04-02T10:34:52.495Z,918.93
2019-04-02T10:35:49.307Z,918.91
2019-04-02T10:37:14.774Z,918.91
2019-04-02T10:38:01.185Z,918.87
2019-04-02T10:38:50.447Z,918.90
2019-04-02T10:39:49.077Z,918.89
2019-04-02T10:40:49.307Z,918.90
2019-04-02T10:41:49.254Z,918.87
2019-04-02T10:42:49.116Z,918.90
2019-04-02T10:44:13.855Z,918.90
2019-04-02T10:45:24.487Z,918.92
2019-04-02T10:46:15.070Z,918.90
2019-04-02T10:47:15.071Z,918.90
2019-04-02T10:48:13.799Z,918.90
2019-04-02T10:49:13.832Z,918.87
2019-04-02T10:50:13.971Z,918.85
2019-04-02T10:51:14.015Z,918.83
2019-04-02T10:52:47.148Z,918.84
2019-04-02T10:53:13.771Z,918.83
2019-04-02T10:54:13.737Z,918.88
2019-04-02T10:55:13.718Z,918.86
2019-04-02T10:56:13.711Z,918.86
2019-04-02T10:57:13.695Z,918.85
2019-04-02T10:58:15.877Z,918.90
2019-04-02T10:59:15.930Z,918.90
2019-04-02T11:00:13.692Z,918.89
2019-04-02T11:01:38.475Z,918.89
2019-04-02T11:02:38.467Z,918.87
2019-04-02T11:03:38.683Z,918.90
2019-04-02T11:04:39.027Z,918.88
2019-04-02T11:05:38.627Z,918.88
2019-04-02T11:06:51.149Z,918.85
2019-04-02T11:07:38.604Z,918.86
2019-04-02T11:08:38.413Z,918.87
2019-04-02T11:09:38.430Z,918.85
2019-04-02T11:10:39.641Z,918.82
2019-04-02T11:12:03.381Z,918.85
2019-04-02T11:13:03.166Z,918.85
2019-04-02T11:14:15.889Z,918.83
2019-04-02T11:15:05.551Z,918.81
2019-04-02T11:16:17.919Z,918.84
2019-04-02T11:17:03.125Z,918.84
2019-04-02T11:18:03.125Z,918.85
2019-04-02T11:19:30.130Z,918.88
2019-04-02T11:20:27.969Z,918.87
2019-04-02T11:21:27.935Z,918.86
2019-04-02T11:22:52.955Z,918.85
2019-04-02T11:24:10.232Z,918.88
2019-04-02T11:24:52.671Z,918.83
2019-04-02T11:25:52.817Z,918.86
2019-04-02T11:27:17.508Z,918.85
2019-04-02T11:28:17.507Z,918.83
2019-04-02T11:29:19.440Z,918.80
2019-04-02T11:30:20.710Z,918.81
2019-04-02T11:31:19.620Z,918.88
2019-04-02T11:32:17.450Z,918.80
2019-04-02T11:33:30.164Z,918.80
2019-04-02T11:34:17.411Z,918.86
2019-04-02T11:35:17.587Z,918.83
2019-04-02T11:36:17.422Z,918.82
2019-04-02T11:37:49.707Z,918.85
2019-04-02T11:38:42.318Z,918.82
2019-04-02T11:40:07.061Z,918.86
2019-04-02T11:41:07.054Z,918.85
2019-04-02T11:42:07.096Z,918.82
2019-04-02T11:43:31.994Z,918.77
2019-04-02T11:44:31.933Z,918.74
2019-04-02T11:45:32.008Z,918.74
2019-04-02T11:46:56.724Z,918.77
2019-04-02T11:47:56.749Z,918.75
2019-04-02T11:51:56.712Z,918.73
2019-04-02T11:53:21.477Z,918.74
2019-04-02T11:54:23.440Z,918.77
2019-04-02T11:56:21.585Z,918.74
2019-04-02T11:57:21.574Z,918.72
2019-04-02T11:58:49.109Z,918.75
2019-04-02T11:59:23.423Z,918.72
2019-04-02T12:00:21.412Z,918.74
2019-04-02T12:01:21.476Z,918.79
2019-04-02T12:02:46.297Z,918.77
2019-04-02T12:04:11.468Z,918.73
2019-04-02T12:05:20.633Z,918.75
2019-04-02T12:06:13.080Z,918.70
2019-04-02T12:07:11.156Z,918.75
2019-04-02T12:08:15.753Z,918.72
2019-04-02T12:09:44.931Z,918.72
2019-04-02T12:10:12.286Z,918.73
2019-04-02T12:11:10.987Z,918.73
2019-04-02T12:12:10.963Z,918.78
2019-04-02T12:16:10.971Z,918.84
2019-04-02T12:17:35.775Z,918.82
2019-04-02T12:18:35.964Z,918.83
2019-04-02T12:19:35.780Z,918.83
2019-04-02T12:20:35.690Z,918.80
2019-04-02T12:21:35.680Z,918.85
2019-04-02T12:22:35.717Z,918.83
2019-04-02T12:24:00.478Z,918.82
2019-04-02T12:25:00.531Z,918.83
2019-04-02T12:26:25.469Z,918.79
2019-04-02T12:27:25.591Z,918.81
2019-04-02T12:28:25.260Z,918.78
2019-04-02T12:29:50.054Z,918.83
2019-04-02T12:30:50.341Z,918.78
2019-04-02T12:32:18.079Z,918.78
2019-04-02T12:33:39.832Z,918.76
2019-04-02T12:34:39.649Z,918.73
2019-04-02T12:35:41.668Z,918.77
2019-04-02T12:38:41.432Z,918.78
2019-04-02T12:39:41.400Z,918.75
2019-04-02T12:40:41.761Z,918.74
2019-04-02T12:41:43.798Z,918.79
2019-04-02T12:43:39.536Z,918.76
2019-04-02T12:44:39.615Z,918.78
2019-04-02T12:46:11.815Z,918.77
2019-04-02T12:47:30.985Z,918.71
2019-04-02T12:48:04.449Z,918.75
2019-04-02T12:49:07.589Z,918.78
2019-04-02T12:50:17.022Z,918.81
2019-04-02T12:51:04.322Z,918.79
2019-04-02T12:52:04.322Z,918.78
2019-04-02T12:53:04.306Z,918.75
2019-04-02T12:54:04.388Z,918.77
2019-04-02T12:55:04.222Z,918.77
2019-04-02T12:56:04.212Z,918.84
2019-04-02T12:57:06.638Z,918.82
2019-04-02T12:58:04.247Z,918.85
2019-04-02T13:00:29.221Z,918.89
2019-04-02T13:01:29.068Z,918.81
2019-04-02T13:02:54.052Z,918.83
2019-04-02T13:03:53.835Z,918.80
2019-04-02T13:04:53.799Z,918.85
2019-04-02T13:05:59.119Z,918.84
2019-04-02T13:06:57.083Z,918.81
2019-04-02T13:07:53.760Z,918.84
2019-04-02T13:08:55.034Z,918.79
2019-04-02T13:10:22.470Z,918.82
2019-04-02T13:10:53.939Z,918.81
2019-04-02T13:11:53.857Z,918.84
2019-04-02T13:12:53.737Z,918.88
2019-04-02T13:13:53.712Z,918.86
2019-04-02T13:14:53.684Z,918.90
2019-04-02T13:15:53.689Z,918.87
2019-04-02T13:16:53.831Z,918.94
2019-04-02T13:18:09.289Z,918.90
2019-04-02T13:19:18.489Z,918.94
2019-04-02T13:20:18.490Z,918.90
2019-04-02T13:21:18.647Z,918.90
2019-04-02T13:22:18.642Z,918.89
2019-04-02T13:23:18.620Z,918.86
2019-04-02T13:24:22.803Z,918.91
2019-04-02T13:25:19.764Z,918.90
2019-04-02T13:26:18.435Z,918.91
2019-04-02T13:27:18.528Z,918.89
2019-04-02T13:28:43.379Z,918.93
2019-04-02T13:29:43.623Z,918.92
2019-04-02T13:31:23.670Z,919.02
2019-04-02T13:32:07.966Z,919.00
2019-04-02T13:33:08.047Z,919.05
2019-04-02T13:34:08.012Z,919.00
2019-04-02T13:35:09.929Z,918.96
2019-04-02T13:36:07.963Z,918.99
2019-04-02T13:37:07.943Z,918.98
2019-04-02T13:38:08.175Z,919.00
2019-04-02T13:39:07.879Z,918.98
2019-04-02T13:40:10.591Z,918.99
2019-04-02T13:41:07.859Z,918.98
2019-04-02T13:42:07.897Z,919.00
2019-04-02T13:45:40.199Z,918.96
2019-04-02T13:46:32.794Z,918.91
2019-04-02T13:48:05.937Z,918.98
2019-04-02T13:48:32.711Z,918.97
2019-04-02T13:50:13.148Z,918.98
2019-04-02T13:51:30.919Z,918.96
2019-04-02T13:52:00.154Z,918.96
2019-04-02T13:52:57.486Z,918.92
2019-04-02T13:53:57.661Z,918.92
2019-04-02T13:55:13.207Z,918.92
2019-04-02T13:56:05.096Z,918.93
2019-04-02T13:56:57.479Z,918.95
2019-04-02T13:57:58.764Z,918.91
2019-04-02T13:58:58.348Z,918.96
2019-04-02T13:59:58.698Z,919.00
2019-04-02T14:01:22.355Z,918.98
2019-04-02T14:02:47.142Z,918.97
2019-04-02T14:04:11.916Z,918.99
2019-04-02T14:05:12.099Z,918.98
2019-04-02T14:08:11.890Z,919.06
2019-04-02T14:09:36.722Z,919.09
2019-04-02T14:10:38.658Z,919.11
2019-04-02T14:11:36.694Z,919.08
2019-04-02T14:13:36.769Z,919.09
2019-04-02T14:14:38.832Z,919.09
2019-04-02T14:15:36.702Z,919.12
2019-04-02T14:17:04.649Z,919.11
2019-04-02T14:18:26.239Z,919.14
2019-04-02T14:22:26.171Z,919.22
2019-04-02T14:23:28.184Z,919.23
2019-04-02T14:25:26.143Z,919.21
2019-04-02T14:26:26.235Z,919.24
2019-04-02T14:27:29.422Z,919.33
2019-04-02T14:28:51.194Z,919.30
2019-04-02T14:29:50.912Z,919.32
2019-04-02T14:30:50.903Z,919.28
2019-04-02T14:31:58.615Z,919.26
2019-04-02T14:32:50.874Z,919.25
2019-04-02T14:33:51.067Z,919.27
2019-04-02T14:34:50.942Z,919.30
2019-04-02T14:36:16.331Z,919.34
2019-04-02T14:38:33.576Z,919.35
2019-04-02T14:40:07.190Z,919.42
2019-04-02T14:41:05.303Z,919.41
2019-04-02T14:42:30.044Z,919.41